• Join FlightAware (Why Join?)
  • Login
  • US Flag 
08:12PM EDT


 

Airport Tracker/Info


-or-


 

Live Flight TrackerFlight Track Log ✈ EJA396 ✈ 10-Jun-2013 ✈ KSMO - KSFO

Flight Track Log - Related Links

Times and Time Zones

All times are in EDT time to prevent confusion due to time zone crossing. See the EJA396 flight status page for this flight to view local times or setup timezone preferences in your user account.

Time Position Orientation Groundspeed Altitude Reporting Facility
EDT Latitude Longitude Course Direction KTS MPH feet Rate Location/Type
09:25PM 34.0050 -118.4642 240° Southwest 133 153 1,000  Level Los Angeles Center
09:26PM 33.9819 -118.5117 240° Southwest 158 182 3,200 2,640 Climbing Los Angeles Center
09:27PM 33.9528 -118.5822 244° Southwest 237 273 6,500 3,600 Climbing Los Angeles Center
09:28PM 33.9269 -118.6628 249° West 260 299 10,600 3,480 Climbing Los Angeles Center
09:29PM 33.9144 -118.7606 261° West 276 318 13,700 2,640 Climbing Los Angeles Center
09:30PM 33.9294 -118.8492 282° West 293 337 16,100 2,520 Climbing Los Angeles Center
09:31PM 33.9833 -118.9325 308° West 314 361 18,900 2,580 Climbing Los Angeles Center
09:32PM 34.0400 -119.0139 310° West 319 367 21,500 2,340 Climbing Los Angeles Center
09:33PM 34.1056 -119.0914 316° Northwest 330 380 23,800 2,220 Climbing Los Angeles Center
09:34PM 34.1725 -119.1714 315° West 335 386 26,100 2,400 Climbing Los Angeles Center
09:35PM 34.2542 -119.2681 316° Northwest 341 392 28,800 1,860 Climbing Los Angeles Center
09:36PM 34.3225 -119.3483 316° Northwest 342 394 30,000 540 Climbing Los Angeles Center
09:37PM 34.3983 -119.4400 315° West 382 440 30,000  Level Los Angeles Center
09:39PM 34.4806 -119.5392 315° West 409 471 30,000  Level Los Angeles Center
09:40PM 34.5667 -119.6406 316° Northwest 426 490 30,000  Level Los Angeles Center
09:41PM 34.6658 -119.7589 316° Northwest 436 502 30,000  Level Los Angeles Center
09:42PM 34.7525 -119.8653 315° West 443 510 30,000  Level Los Angeles Center
09:43PM 34.8392 -119.9694 315° West 440 506 30,000  Level Los Angeles Center
09:44PM 34.9258 -120.0750 315° West 441 507 30,000  Level Los Angeles Center
09:45PM 35.0078 -120.1750 315° West 446 513 30,000  Level Los Angeles Center
09:46PM 35.0950 -120.2808 315° West 447 514 30,000  Level Los Angeles Center
09:47PM 35.2169 -120.4308 315° West 448 516 30,000  Level Los Angeles Center
09:48PM 35.3036 -120.5392 314° West 450 518 30,000  Level Los Angeles Center
09:49PM 35.3917 -120.6469 315° West 449 517 30,000  Level Los Angeles Center
09:50PM 35.4794 -120.7567 315° West 452 520 30,000  Level Los Angeles Center
09:51PM 35.5581 -120.8339 321° Northwest 453 521 30,000  Level Los Angeles Center
09:52PM 35.6978 -120.9647 323° Northwest 458 527 30,000  Level Los Angeles Center
09:52PM 35.7164 -120.9839 320° Northwest 456 525 30,000  Level Oakland Center
09:53PM 35.8369 -121.0997 322° Northwest 454 522 30,000  Level Oakland Center
09:54PM 35.9389 -121.1942 323° Northwest 458 527 30,000  Level Oakland Center
09:55PM 36.0394 -121.2911 322° Northwest 455 524 30,000  Level Oakland Center
09:56PM 36.1403 -121.3850 323° Northwest 453 521 30,000 -720 Level Oakland Center
09:58PM 36.2386 -121.4808 322° Northwest 447 514 28,600 -1,560 Descending Oakland Center
09:59PM 36.3375 -121.5739 323° Northwest 444 511 26,900 -1,920 Descending Oakland Center
10:00PM 36.4289 -121.6653 321° Northwest 421 484 24,700 -2,280 Descending Oakland Center
10:01PM 36.5183 -121.7503 323° Northwest 406 467 22,300 -2,580 Descending Oakland Center
10:01PM 36.5833 -121.8167 321° Northwest 395 455 20,500 -1,920 Descending Northern Cal TRACON
10:02PM 36.6667 -121.8833 327° Northwest 376 433 19,200 -2,100 Descending Northern Cal TRACON
10:03PM 36.7500 -121.9667 321° Northwest 366 421 16,400 -2,700 Descending Northern Cal TRACON
10:04PM 36.8500 -121.9833 352° North 332 382 13,900 -2,340 Descending Northern Cal TRACON
10:05PM 36.9333 -122.0167 342° North 301 346 11,500 -1,980 Descending Northern Cal TRACON
10:06PM 37.0167 -122.0333 351° North 312 359 10,000 -840 Descending Northern Cal TRACON
10:07PM 37.1000 -122.0500 351° North 311 358 10,000  Level Northern Cal TRACON
10:08PM 37.1297 -122.0656 337° Northwest 309 356 10,000 -300 Level Oakland Center
10:09PM 37.2131 -122.0878 348° North 306 352 9,600 -960 Descending Oakland Center
10:10PM 37.2889 -122.1072 348° North 279 321 8,100 -1,560 Descending Oakland Center
10:11PM 37.3606 -122.1258 348° North 266 306 6,500 -1,680 Descending Oakland Center
10:12PM 37.4356 -122.1389 352° North 268 308 4,800 -1,320 Descending Oakland Center
10:13PM 37.5103 -122.1647 345° North 275 316 3,900 -1,380 Descending Oakland Center
10:14PM 37.5597 -122.2311 313° West 266 306 2,100 -1,260 Descending Oakland Center
10:15PM 37.5897 -122.3044 297° West 250 288 1,400 -960 Descending Oakland Center
10:16PM 37.6081 -122.3478 298° West 179 206 200 -1,200 Descending Oakland Center
10:18PM 37.6167 -122.3667 322° Northwest  Level FlightAware Approximate